Main page
METAR-TAF:

METAR-TAF

Airports :

Islay, Scotland

Islay Airport

latitude: 55-40-55N, longitude: 006-15-24W, elevation: 16 m

Current weather observation

The report was made 53 minutes ago, at 01:50 UTC
Wind 2 kt from the North/Northeast
Temperature 11°C
Humidity 94%
Pressure 1017 hPa
Visibility 10 km or more

METAR: EGPI 240150Z AUTO 02002KT 9999 NCD 11/10 Q1017

Time: 03:43 (02:43 UTC)

Forecast

The report was made 42 minutes ago, at 02:01 UTC
Forecast valid from 24 at 03 UTC to 24 at 12 UTC
Wind 8 kt from the North
Visibility 10 km or more
Few clouds at a height of 4000 ft

TAF: EGPI 240201Z 2403/2412 35008KT 9999 FEW040

Weather observations and forecasts of more than 4000 airports (METAR and TAF reports).

The available stations are represented by yellow and red dots on the map.

Hover mouse over dot to see the name of the station.

Then click to see weather observations and forecasts.

To change the map : click on the green buttons with a black cross to zoom in, on the green button with a dash to zoom out, or on the green arrows for adjacent maps.


METAR-TAF: